Pagina principale
METAR-TAF:

METAR-TAF

Aeroporti :

Aeroporto Internazionale Philip S. W. Goldson

Belize City, Belize

latitudine: 17-32N, longitudine: 088-18W, altezza: 5 m

Osservazione

Il bollettino è stato emesso 41 minuti fa, alle 23:00 UTC
Vento 7 kt da est
Temperature 28°C
Umidità 89%
Pressione 1011 hPa
Visibilità 10 km o più
Nubi sparse ad un'altezza di 1800 ft

METAR: MZBZ 202300Z 09007KT 9999 SCT018 28/26 A2986 Q1011 NOSIG RMK DIST CBTOP-SW

Ora: 17:41 (23:41 UTC)

Previsione

Il bollettino è stato emesso 2 ore e 41 minuti fa, alle 21:00 UTC
Previsione valida dal 21 alle 00 UTC al 21 alle 24 UTC
Vento 10 kt da est
Visibilità 10 km o più
Nubi sparse ad un'altezza di 2200 ft
Probabilità 30% :
Temporaneamente
dal 21 alle 09 UTC al 21 alle 15 UTC
Visibilità: 5000 m
Nuvoloso ad un'altezza di 1500 ft
rovesci di pioggia

TAF: MZBZ 202100Z 2100/2124 08010KT 9999 SCT022 PROB30 TEMPO 2109/2115 5000 SHRA BKN015

Osservazioni e previsioni meteorologiche di più di 4000 aeroporti (messaggi METAR e TAF).

Le stazioni disponibili sono rappresentate dai dischi gialli e rossi sulla carta.

Puntare il mouse per vedere il nome della stazione.

Clicca sopra per visualizzare le osservazioni e previsioni meteorologiche.

Per cambiare la mappa : fare clic sui pulsanti verdi con una croce nera per ingrandire, il pulsante verde con un trattino per diminuire, o sulla freccia verde per le mappe adiacenti.


METAR-TAF: